Pagrindinis puslapis
METAR-TAF:

METAR-TAF

Oro uostai :

Togiak, Aliaska, Jungtinės Amerikos Valstijos

platuma: 59-03N, ilguma: 160-24W, Aukštis: 6 m

Dabartinis oras

Ataskaita buvo paskelbta 55 minutes, ne 21:56 UTC
Vėjas 10 kt iš Vakarų
Temperatūra 12°C
Drėgmė 67%
Slėgis 1019 hPa
Matomumas: 16.1 km
Mažai debesys ne aukštis 2500 ft
Išsisklaidę debesys ne aukštis 8000 ft

METAR: PATG 052156Z AUTO 27010KT 10SM FEW025 SCT080 12/06 A3008 RMK AO2 SLP279 T01170056

Laikas: 14:51 (22:51 UTC)


TAF: trūkstamas

Orai ataskaitas ir orų prognozės (METAR, TAF).

turimą stotys yra geltonos ir raudonos taškus žemėlapyje.

Perkelti pele per norėdami pamatyti stoties vardą.

Tada spustelėkite, norėdami matyti oro stebėjimo ir prognozės.

Norėdami pakeisti žemėlapį: spustelėkite ant žalios mygtukų su juodo kryžiaus žemyn,; žalią mygtuką su brūkšneliu, jei norite nutolinti; arba žalių rodyklių gretimoms žemėlapius.


METAR-TAF: